Nanaimo, Canada
Current Conditions -  °F | °C
As of 3:00 PM on Saturday 25 Oct 2014 (Local Time) from CYCD Reporting Station
Light Rain Light Rain  
Wind Chill: 48°   Ceiling: 2500
Heat Index: 48°   Visibility: 3mi
Dew Point: 48°   Wind: 2mph
Humidity: 100%   Direction: NA
Pressure: 29.35"   Gusts: NA
Location:  49.16°N, 123.94°W
Report Text: CYCD 252200Z VRB02KT 3SM -RA BR SCT005 OVC025 09/09 A2935 RMK SF3SC5 SLP939 DENSITY ALT 100FT
Loading
Personal Weather Stations






























Interactive Weather Map
Tropical Storm Tracking
New forecast layout! Learn more

10-Day Weather Forecast

Advertisements
Track Severe Weather on mobile